Time;durP1;ratioP1;P1;durP2;ratioP2;P2;SDS_P1;SDS_P2;PMS_P1;PMS_P2;Temp;Humidity;BMP_temperature;BMP_pressure;BME280_temperature;BME280_humidity;BME280_pressure;Samples;Min_cycle;Max_cycle;Signal;HPM_P1;HPM_P2
2023/09/06 00:01:24;;;;;;;5.70;3.30;;;19.50;99.90;;;;;;5072514;28;20174;-71
2023/09/06 00:03:50;;;;;;;3.33;3.03;;;19.50;99.90;;;;;;5072593;28;20583;-71
2023/09/06 00:06:16;;;;;;;3.63;3.33;;;19.50;99.90;;;;;;5072009;28;20198;-70
2023/09/06 00:08:42;;;;;;;3.55;3.20;;;19.50;99.90;;;;;;5072624;28;20174;-71
2023/09/06 00:11:08;;;;;;;4.13;3.30;;;19.40;99.90;;;;;;5072641;28;20170;-71
2023/09/06 00:13:34;;;;;;;3.40;3.20;;;19.30;99.90;;;;;;5072500;28;20175;-71
2023/09/06 00:16:01;;;;;;;3.58;3.28;;;19.30;99.90;;;;;;5072747;28;20190;-71
2023/09/06 00:18:27;;;;;;;3.80;3.10;;;19.30;99.90;;;;;;5071141;28;20182;-71
2023/09/06 00:20:53;;;;;;;3.40;3.10;;;19.40;99.90;;;;;;5072355;28;20174;-70
2023/09/06 00:23:20;;;;;;;3.50;3.25;;;19.30;99.90;;;;;;5072154;28;20170;-70
2023/09/06 00:25:46;;;;;;;4.15;3.85;;;19.30;99.90;;;;;;5072314;28;20675;-70
2023/09/06 00:28:13;;;;;;;4.30;4.00;;;19.30;99.90;;;;;;5071917;28;20193;-70
2023/09/06 00:30:39;;;;;;;4.10;3.80;;;19.20;99.90;;;;;;5072240;28;20640;-70
2023/09/06 00:33:06;;;;;;;5.00;3.55;;;19.20;99.90;;;;;;5070597;28;20177;-70
2023/09/06 00:35:32;;;;;;;3.55;3.28;;;19.20;99.90;;;;;;5072050;28;20190;-70
2023/09/06 00:38:01;;;;;;;4.18;3.88;;;19.10;99.90;;;;;;5071979;28;20186;-71
2023/09/06 00:40:29;;;;;;;3.65;3.35;;;19.10;99.90;;;;;;5072068;28;20193;-70
2023/09/06 00:42:59;;;;;;;4.25;3.70;;;19.10;99.90;;;;;;5071973;28;20255;-70
2023/09/06 00:45:30;;;;;;;4.10;3.70;;;18.90;99.90;;;;;;5071821;28;20206;-70
2023/09/06 00:47:57;;;;;;;3.92;3.63;;;18.90;99.90;;;;;;5071989;28;20162;-70
2023/09/06 00:50:23;;;;;;;4.20;3.90;;;18.80;99.90;;;;;;5071974;28;20170;-70
2023/09/06 00:52:51;;;;;;;4.75;3.90;;;18.70;99.90;;;;;;5071560;28;20217;-70
2023/09/06 00:55:18;;;;;;;4.25;3.90;;;18.60;99.90;;;;;;5071816;28;20214;-70
2023/09/06 00:57:44;;;;;;;6.10;3.50;;;18.60;99.90;;;;;;5072215;28;20231;-70
2023/09/06 01:00:18;;;;;;;3.43;3.23;;;18.60;99.90;;;;;;5071972;28;20239;-70
2023/09/06 01:02:47;;;;;;;4.40;3.63;;;18.50;99.90;;;;;;5071457;28;20209;-70
2023/09/06 01:05:17;;;;;;;4.10;3.78;;;18.40;99.90;;;;;;5071508;28;20194;-70
2023/09/06 01:08:03;;;;;;;4.13;3.73;;;18.40;99.90;;;;;;5071594;28;20256;-70
2023/09/06 01:10:28;;;;;;;4.10;3.70;;;18.30;99.90;;;;;;5071430;28;20182;-70
2023/09/06 01:12:55;;;;;;;4.60;4.10;;;18.30;99.90;;;;;;5071246;28;20181;-70
2023/09/06 01:15:21;;;;;;;4.40;4.00;;;18.20;99.90;;;;;;5071509;28;20273;-70
2023/09/06 01:17:49;;;;;;;4.10;3.77;;;18.20;99.90;;;;;;5071389;28;20183;-70
2023/09/06 01:20:23;;;;;;;4.20;3.80;;;18.10;99.90;;;;;;5071493;28;20170;-70
2023/09/06 01:22:57;;;;;;;5.47;4.20;;;18.00;99.90;;;;;;5070928;28;20252;-70
2023/09/06 01:25:23;;;;;;;4.68;4.28;;;18.00;99.90;;;;;;5071187;28;20200;-70
2023/09/06 01:27:48;;;;;;;5.10;4.00;;;17.90;99.90;;;;;;5071240;28;20166;-70
2023/09/06 01:30:14;;;;;;;4.00;3.70;;;17.80;99.90;;;;;;5071429;28;20524;-70
2023/09/06 01:32:40;;;;;;;4.43;4.00;;;17.80;99.90;;;;;;5070961;28;20185;-70
2023/09/06 01:35:09;;;;;;;4.97;4.27;;;17.80;99.90;;;;;;5071224;28;20186;-70
2023/09/06 01:37:37;;;;;;;6.30;4.20;;;17.80;99.90;;;;;;5071268;28;20174;-70
2023/09/06 01:40:14;;;;;;;4.30;3.90;;;17.70;99.90;;;;;;5072139;28;20174;-70
2023/09/06 01:42:39;;;;;;;4.83;4.07;;;17.70;99.90;;;;;;5070844;28;20185;-70
2023/09/06 01:45:06;;;;;;;4.50;4.20;;;17.70;99.90;;;;;;5069693;28;20205;-70
2023/09/06 01:47:32;;;;;;;7.17;4.37;;;17.70;99.90;;;;;;5071160;28;20174;-70
2023/09/06 01:49:57;;;;;;;4.40;3.67;;;17.70;99.90;;;;;;5071554;28;20174;-70
2023/09/06 01:52:23;;;;;;;3.77;3.47;;;17.60;99.90;;;;;;5070809;28;20711;-70
2023/09/06 01:54:49;;;;;;;4.57;4.27;;;17.60;99.90;;;;;;5070918;28;20251;-70
2023/09/06 01:57:14;;;;;;;5.03;4.63;;;17.70;99.90;;;;;;5071127;28;20198;-70
2023/09/06 01:59:40;;;;;;;4.43;4.00;;;17.60;99.90;;;;;;5070991;28;20171;-70
2023/09/06 02:02:05;;;;;;;4.27;3.83;;;17.70;99.90;;;;;;5070728;28;20209;-70
2023/09/06 02:04:31;;;;;;;4.75;4.32;;;17.60;99.90;;;;;;5070961;28;20192;-70
2023/09/06 02:06:56;;;;;;;5.43;4.47;;;17.60;99.90;;;;;;5070861;28;20197;-70
2023/09/06 02:09:22;;;;;;;4.30;4.00;;;17.60;99.90;;;;;;5070987;28;20177;-70
2023/09/06 02:11:48;;;;;;;5.20;4.30;;;17.60;99.90;;;;;;5070760;28;20249;-70
2023/09/06 02:14:13;;;;;;;4.87;4.47;;;17.60;99.90;;;;;;5070950;28;20174;-70
2023/09/06 02:16:39;;;;;;;4.43;4.03;;;17.60;99.90;;;;;;5070949;28;20174;-70
2023/09/06 02:19:06;;;;;;;5.40;4.90;;;17.60;99.90;;;;;;5070839;28;20170;-70
2023/09/06 02:21:31;;;;;;;5.10;4.60;;;17.60;99.90;;;;;;5070150;28;20170;-70
2023/09/06 02:23:58;;;;;;;5.50;5.00;;;17.40;99.90;;;;;;5071172;28;20208;-70
2023/09/06 02:26:24;;;;;;;5.00;4.60;;;17.40;99.90;;;;;;5070779;28;20709;-70
2023/09/06 02:28:50;;;;;;;4.50;4.20;;;17.30;99.90;;;;;;5070828;28;20166;-70
2023/09/06 02:31:16;;;;;;;4.90;4.50;;;17.30;99.90;;;;;;5074023;28;20166;-70
2023/09/06 02:33:43;;;;;;;4.97;4.57;;;17.20;99.90;;;;;;5074273;28;20288;-70
2023/09/06 02:36:09;;;;;;;5.23;4.50;;;17.10;99.90;;;;;;5074655;28;20208;-70
2023/09/06 02:38:35;;;;;;;4.83;4.23;;;17.10;99.90;;;;;;5074639;28;20178;-70
2023/09/06 02:41:00;;;;;;;5.60;4.70;;;17.00;99.90;;;;;;5074214;28;20193;-70
2023/09/06 02:43:26;;;;;;;6.30;4.80;;;17.00;99.90;;;;;;5074078;28;20186;-70
2023/09/06 02:45:54;;;;;;;4.77;4.33;;;17.00;99.90;;;;;;5074276;28;20292;-70
2023/09/06 02:48:21;;;;;;;4.93;4.60;;;16.90;99.90;;;;;;5074286;28;20194;-70
2023/09/06 02:50:47;;;;;;;5.20;4.63;;;16.90;99.90;;;;;;5074174;28;20170;-70
2023/09/06 02:53:22;;;;;;;5.13;4.70;;;16.80;99.90;;;;;;5073782;28;20249;-70
2023/09/06 02:55:53;;;;;;;5.23;4.83;;;16.80;99.90;;;;;;5074071;28;20256;-70
2023/09/06 02:58:23;;;;;;;8.20;5.23;;;16.70;99.90;;;;;;5074138;28;20178;-70
2023/09/06 03:00:55;;;;;;;6.23;5.67;;;16.70;99.90;;;;;;5074018;28;20182;-70
2023/09/06 03:03:21;;;;;;;5.50;5.00;;;16.60;99.90;;;;;;5073889;28;20224;-70
2023/09/06 03:05:47;;;;;;;5.77;5.20;;;16.60;99.90;;;;;;5074433;28;20202;-70
2023/09/06 03:08:13;;;;;;;5.40;5.00;;;16.60;99.90;;;;;;5073997;28;20166;-70
2023/09/06 03:10:46;;;;;;;5.20;4.80;;;16.50;99.90;;;;;;5073796;28;20170;-70
2023/09/06 03:13:11;;;;;;;5.70;5.00;;;16.50;99.90;;;;;;5073611;28;20228;-70
2023/09/06 03:15:37;;;;;;;5.20;4.70;;;16.50;99.90;;;;;;5073672;28;20621;-70
2023/09/06 03:18:04;;;;;;;6.10;5.00;;;16.50;99.90;;;;;;5073853;28;20170;-70
2023/09/06 03:20:34;;;;;;;5.70;5.17;;;16.40;99.90;;;;;;5073198;28;20596;-70
2023/09/06 03:23:38;;;;;;;5.40;4.90;;;16.40;99.90;;;;;;5072952;28;20174;-70
2023/09/06 03:25:57;;;;;;;4.90;4.47;;;16.40;99.90;;;;;;5071346;28;20225;-70
2023/09/06 03:28:25;;;;;;;5.43;4.87;;;16.30;99.90;;;;;;5073480;28;20170;-70
2023/09/06 03:30:54;;;;;;;5.90;5.37;;;16.30;99.90;;;;;;5073395;28;20189;-70
2023/09/06 03:33:19;;;;;;;6.20;4.97;;;16.30;99.90;;;;;;5073139;28;20197;-70
2023/09/06 03:35:46;;;;;;;9.37;5.83;;;16.30;99.90;;;;;;5073266;28;20194;-70
2023/09/06 03:38:15;;;;;;;6.40;5.77;;;16.30;99.90;;;;;;5073420;28;20230;-70
2023/09/06 03:40:42;;;;;;;5.60;5.10;;;16.30;99.90;;;;;;5072778;28;20183;-70
2023/09/06 03:43:26;;;;;;;6.17;5.60;;;16.30;99.90;;;;;;5072222;28;20196;-70
2023/09/06 03:45:53;;;;;;;5.63;5.23;;;16.30;99.90;;;;;;5073026;28;20727;-70
2023/09/06 03:48:24;;;;;;;6.60;5.20;;;16.20;99.90;;;;;;5073572;28;20170;-70
2023/09/06 03:50:57;;;;;;;5.90;5.40;;;16.20;99.90;;;;;;5073078;28;20167;-70
2023/09/06 03:53:27;;;;;;;7.67;5.70;;;16.20;99.90;;;;;;5072648;28;20177;-70
2023/09/06 03:55:57;;;;;;;6.60;5.67;;;16.20;99.90;;;;;;5072775;28;20197;-71
2023/09/06 03:58:23;;;;;;;5.63;5.03;;;16.10;99.90;;;;;;5072903;28;20539;-70
2023/09/06 04:00:49;;;;;;;6.27;5.67;;;16.20;99.90;;;;;;5072811;28;20174;-70
2023/09/06 04:03:15;;;;;;;5.37;4.97;;;16.20;99.90;;;;;;5072645;28;20328;-70
2023/09/06 04:05:41;;;;;;;6.40;5.77;;;16.20;99.90;;;;;;5072535;28;20206;-70
2023/09/06 04:08:07;;;;;;;7.63;5.73;;;16.30;99.90;;;;;;5072963;28;20224;-70
2023/09/06 04:10:40;;;;;;;5.30;4.90;;;16.30;99.90;;;;;;5072545;28;20174;-71
2023/09/06 04:13:09;;;;;;;5.20;4.70;;;16.30;99.90;;;;;;5072267;28;20686;-70
2023/09/06 04:15:35;;;;;;;6.33;5.83;;;16.40;99.90;;;;;;5072301;28;20277;-70
2023/09/06 04:18:02;;;;;;;5.47;4.77;;;16.40;99.90;;;;;;5072581;28;20608;-70
2023/09/06 04:20:35;;;;;;;7.70;5.20;;;16.40;99.90;;;;;;5072311;28;20547;-70
2023/09/06 04:23:04;;;;;;;5.40;4.90;;;16.40;99.90;;;;;;5072069;28;20666;-70
2023/09/06 04:25:33;;;;;;;8.33;5.30;;;16.50;99.90;;;;;;5072099;28;20683;-70
2023/09/06 04:28:00;;;;;;;5.40;5.00;;;16.50;99.90;;;;;;5072360;28;20181;-71
2023/09/06 04:30:32;;;;;;;5.67;5.17;;;16.50;99.90;;;;;;5072718;28;20516;-71
2023/09/06 04:32:58;;;;;;;6.73;5.37;;;16.50;99.90;;;;;;5071885;28;20178;-70
2023/09/06 04:35:34;;;;;;;5.43;4.93;;;16.60;99.90;;;;;;5072170;28;20269;-70
2023/09/06 04:38:02;;;;;;;6.03;4.60;;;16.50;99.90;;;;;;5072322;28;20310;-70
2023/09/06 04:40:29;;;;;;;5.13;4.63;;;16.50;99.90;;;;;;5071894;28;20173;-70
2023/09/06 04:42:55;;;;;;;5.47;4.53;;;16.50;99.90;;;;;;5071644;28;20174;-70
2023/09/06 04:45:20;;;;;;;5.53;5.13;;;16.50;99.90;;;;;;5071843;28;20190;-70
2023/09/06 04:47:46;;;;;;;6.13;5.63;;;16.50;99.90;;;;;;5071977;28;20188;-70
2023/09/06 04:50:11;;;;;;;5.47;4.97;;;16.50;99.90;;;;;;5072076;28;20178;-70
2023/09/06 04:52:45;;;;;;;8.20;4.80;;;16.50;99.90;;;;;;5071307;28;20169;-70
2023/09/06 04:55:12;;;;;;;5.83;5.20;;;16.50;99.90;;;;;;5071736;28;20718;-70
2023/09/06 04:57:39;;;;;;;5.87;4.67;;;16.50;99.90;;;;;;5072269;28;20170;-72
2023/09/06 05:00:24;;;;;;;5.30;4.90;;;16.60;99.90;;;;;;5071877;28;20179;-72
2023/09/06 05:02:53;;;;;;;5.13;4.63;;;16.50;99.90;;;;;;5071469;28;20194;-71
2023/09/06 05:05:21;;;;;;;5.73;4.37;;;16.60;99.90;;;;;;5071474;28;20255;-72
2023/09/06 05:07:47;;;;;;;5.43;5.00;;;16.60;99.90;;;;;;5071650;28;20275;-71
2023/09/06 05:10:12;;;;;;;6.20;4.80;;;16.60;99.90;;;;;;5071848;28;20740;-71
2023/09/06 05:12:39;;;;;;;5.57;5.03;;;16.60;99.90;;;;;;5071673;28;20178;-72
2023/09/06 05:15:06;;;;;;;10.53;4.97;;;16.60;99.90;;;;;;5071535;28;20247;-72
2023/09/06 05:17:35;;;;;;;5.03;4.63;;;16.60;99.90;;;;;;5071639;28;20182;-72
2023/09/06 05:20:28;;;;;;;5.60;5.10;;;16.50;99.90;;;;;;5072090;28;20262;-72
2023/09/06 05:22:56;;;;;;;4.97;4.57;;;16.50;99.90;;;;;;5071243;28;20177;-72
2023/09/06 05:25:21;;;;;;;5.47;4.97;;;16.50;99.90;;;;;;5071443;28;20204;-72
2023/09/06 05:27:47;;;;;;;5.70;5.20;;;16.50;99.90;;;;;;5071458;28;20182;-73
2023/09/06 05:30:14;;;;;;;6.87;5.00;;;16.50;99.90;;;;;;5071401;28;20176;-72
2023/09/06 05:32:39;;;;;;;5.40;4.90;;;16.50;99.90;;;;;;5071178;28;20170;-72
2023/09/06 05:35:06;;;;;;;5.10;4.70;;;16.50;99.90;;;;;;5071250;28;20702;-72
2023/09/06 05:37:31;;;;;;;5.63;4.77;;;16.50;99.90;;;;;;5071276;28;20201;-72
2023/09/06 05:39:57;;;;;;;5.77;5.20;;;16.50;99.90;;;;;;5071427;28;20174;-72
2023/09/06 05:42:22;;;;;;;6.13;5.40;;;16.60;99.90;;;;;;5071252;28;20202;-72
2023/09/06 05:44:48;;;;;;;6.33;5.83;;;16.60;99.90;;;;;;5071162;28;20198;-72
2023/09/06 05:47:13;;;;;;;6.03;5.53;;;16.60;99.90;;;;;;5071378;28;20224;-72
2023/09/06 05:49:40;;;;;;;6.57;5.97;;;16.60;99.90;;;;;;5071192;28;20193;-72
2023/09/06 05:52:06;;;;;;;6.00;5.50;;;16.70;99.90;;;;;;5071192;28;20249;-72
2023/09/06 05:54:32;;;;;;;5.40;4.90;;;16.70;99.90;;;;;;5071032;28;20324;-72
2023/09/06 05:56:57;;;;;;;5.97;5.13;;;16.80;99.90;;;;;;5071380;28;20178;-72
2023/09/06 05:59:23;;;;;;;5.73;4.83;;;16.80;99.90;;;;;;5071180;28;20178;-72
2023/09/06 06:01:49;;;;;;;5.80;4.80;;;16.80;99.90;;;;;;5070990;28;20170;-72
2023/09/06 06:04:15;;;;;;;6.10;5.50;;;17.00;99.90;;;;;;5071061;28;20174;-72
2023/09/06 06:06:41;;;;;;;5.20;4.80;;;17.00;99.90;;;;;;5074919;28;20205;-72
2023/09/06 06:09:11;;;;;;;5.70;5.20;;;17.10;99.90;;;;;;5075165;28;20170;-71
2023/09/06 06:11:38;;;;;;;5.43;5.03;;;17.20;99.90;;;;;;5074636;28;20178;-71
2023/09/06 06:14:04;;;;;;;4.90;4.60;;;17.30;99.90;;;;;;5074965;28;20198;-71
2023/09/06 06:16:30;;;;;;;5.43;4.93;;;17.50;99.90;;;;;;5075055;28;20608;-71
2023/09/06 06:18:56;;;;;;;5.00;4.60;;;17.70;99.90;;;;;;5075228;28;20244;-71
2023/09/06 06:21:27;;;;;;;4.90;4.20;;;18.10;99.90;;;;;;5072606;28;20190;-71
2023/09/06 06:23:54;;;;;;;4.32;3.80;;;18.60;99.90;;;;;;5075072;28;20493;-71
2023/09/06 06:26:20;;;;;;;3.53;3.22;;;19.30;99.90;;;;;;5074639;28;20293;-71
2023/09/06 06:28:46;;;;;;;4.28;3.97;;;19.90;99.90;;;;;;5074852;28;20170;-72
2023/09/06 06:31:12;;;;;;;3.45;3.15;;;20.50;99.90;;;;;;5074635;28;20205;-72
2023/09/06 06:33:38;;;;;;;3.85;3.38;;;21.10;99.90;;;;;;5074307;28;20175;-71
2023/09/06 06:36:07;;;;;;;4.00;3.60;;;21.60;99.90;;;;;;5074908;28;20186;-72
2023/09/06 06:38:33;;;;;;;4.20;3.80;;;22.00;99.90;;;;;;5075659;28;20170;-72
2023/09/06 06:40:58;;;;;;;6.13;3.25;;;22.40;99.90;;;;;;5074663;28;20238;-72
2023/09/06 06:43:24;;;;;;;7.45;3.30;;;22.80;99.90;;;;;;5074221;28;20538;-72
2023/09/06 06:45:54;;;;;;;4.43;3.65;;;23.20;99.90;;;;;;5074634;28;20225;-71
2023/09/06 06:48:20;;;;;;;5.30;3.30;;;23.50;99.90;;;;;;5074880;28;20162;-71
2023/09/06 06:50:46;;;;;;;5.20;3.33;;;23.90;99.90;;;;;;5075452;28;20537;-71
2023/09/06 06:53:11;;;;;;;6.35;4.00;;;24.30;99.90;;;;;;5075081;28;20177;-71
2023/09/06 06:55:37;;;;;;;4.43;3.00;;;24.50;99.90;;;;;;5075378;28;20194;-72
2023/09/06 06:58:05;;;;;;;6.28;3.30;;;24.70;99.90;;;;;;5075472;28;20657;-73
2023/09/06 07:00:31;;;;;;;5.93;4.35;;;24.90;99.90;;;;;;5075227;28;20216;-72
2023/09/06 07:02:58;;;;;;;5.07;3.75;;;25.10;99.90;;;;;;5074750;28;20167;-72
2023/09/06 07:05:23;;;;;;;4.95;3.50;;;25.40;99.90;;;;;;5074769;28;20190;-72
2023/09/06 07:07:49;;;;;;;4.07;3.30;;;25.60;99.90;;;;;;5074062;28;20534;-72
2023/09/06 07:10:15;;;;;;;4.40;3.97;;;25.70;99.90;;;;;;5073922;28;20173;-72
2023/09/06 07:12:41;;;;;;;4.97;4.40;;;25.90;99.90;;;;;;5072371;28;20537;-71
2023/09/06 07:15:07;;;;;;;6.72;3.10;;;25.90;99.90;;;;;;5073606;28;20680;-71
2023/09/06 07:17:33;;;;;;;4.15;3.22;;;26.10;99.90;;;;;;5073629;28;20538;-71
2023/09/06 07:19:59;;;;;;;8.45;3.22;;;26.20;99.90;;;;;;5073819;28;20174;-71
2023/09/06 07:22:25;;;;;;;3.90;3.20;;;26.30;99.90;;;;;;5072979;28;20534;-71
2023/09/06 07:24:50;;;;;;;7.40;3.13;;;26.50;99.90;;;;;;5073421;28;20678;-71
2023/09/06 07:27:16;;;;;;;4.15;3.20;;;26.80;99.90;;;;;;5073341;28;20202;-72
2023/09/06 07:29:42;;;;;;;3.38;3.10;;;26.90;99.90;;;;;;5073486;28;20336;-71
2023/09/06 07:32:07;;;;;;;3.58;2.95;;;27.20;99.90;;;;;;5073138;28;20220;-71
2023/09/06 07:34:33;;;;;;;3.83;3.40;;;27.30;99.90;;;;;;5073145;28;20264;-72
2023/09/06 07:36:58;;;;;;;4.95;4.45;;;27.10;99.90;;;;;;5073436;28;20170;-71
2023/09/06 07:39:24;;;;;;;5.30;4.95;;;27.20;99.90;;;;;;5073160;28;20170;-72
2023/09/06 07:41:51;;;;;;;4.05;3.35;;;27.50;99.90;;;;;;5072907;28;20186;-71
2023/09/06 07:44:18;;;;;;;4.80;3.22;;;27.70;99.90;;;;;;5073121;28;20743;-71
2023/09/06 07:46:48;;;;;;;4.07;3.10;;;27.90;99.90;;;;;;5072971;28;20335;-71
2023/09/06 07:49:18;;;;;;;6.80;3.67;;;28.20;99.90;;;;;;5073206;28;20166;-71
2023/09/06 07:51:44;;;;;;;12.88;3.53;;;28.40;99.90;;;;;;5072761;28;20531;-71
2023/09/06 07:54:10;;;;;;;3.65;3.17;;;28.50;99.90;;;;;;5073025;28;20182;-71
2023/09/06 07:56:37;;;;;;;5.72;2.95;;;28.60;99.90;;;;;;5072809;28;20174;-71
2023/09/06 07:59:03;;;;;;;3.92;3.63;;;28.60;99.90;;;;;;5072829;28;20259;-72
2023/09/06 08:01:28;;;;;;;6.07;5.57;;;28.80;99.90;;;;;;5072443;28;20202;-71
2023/09/06 08:03:55;;;;;;;5.28;4.93;;;29.10;99.90;;;;;;5072975;28;20180;-71
2023/09/06 08:06:21;;;;;;;5.63;3.55;;;29.10;99.90;;;;;;5072654;28;20248;-71
2023/09/06 08:08:47;;;;;;;3.72;2.92;;;29.10;99.90;;;;;;5072619;28;20178;-71
2023/09/06 08:11:17;;;;;;;4.63;4.32;;;29.50;99.90;;;;;;5072368;28;20644;-72
2023/09/06 08:13:42;;;;;;;5.43;4.35;;;29.90;99.90;;;;;;5072301;28;20169;-71
2023/09/06 08:16:08;;;;;;;4.80;3.53;;;30.10;99.90;;;;;;5072495;28;20189;-71
2023/09/06 08:18:34;;;;;;;4.25;3.03;;;30.40;99.90;;;;;;5072387;28;20781;-70
2023/09/06 08:21:00;;;;;;;3.35;2.88;;;30.30;99.90;;;;;;5072397;28;20269;-72
2023/09/06 08:23:25;;;;;;;3.60;3.30;;;30.30;99.90;;;;;;5071964;28;20170;-72
2023/09/06 08:25:51;;;;;;;3.40;2.80;;;30.30;99.90;;;;;;5072410;28;20266;-72
2023/09/06 08:28:18;;;;;;;3.67;2.78;;;30.50;99.90;;;;;;5071924;28;20170;-72
2023/09/06 08:30:46;;;;;;;3.40;2.70;;;30.80;99.90;;;;;;5072084;28;20170;-72
2023/09/06 08:33:12;;;;;;;4.32;2.90;;;31.10;99.90;;;;;;5072006;28;20194;-71
2023/09/06 08:35:38;;;;;;;4.63;3.03;;;31.00;99.90;;;;;;5071951;28;20236;-72
2023/09/06 08:38:03;;;;;;;3.13;2.83;;;30.80;99.90;;;;;;5072106;28;20162;-72
2023/09/06 08:40:29;;;;;;;5.22;2.88;;;30.80;99.90;;;;;;5071875;28;20518;-72
2023/09/06 08:42:55;;;;;;;3.80;3.40;;;31.10;99.90;;;;;;5071802;28;20170;-73
2023/09/06 08:45:22;;;;;;;3.85;2.80;;;31.20;99.90;;;;;;5071890;28;20194;-71
2023/09/06 08:47:48;;;;;;;3.35;3.00;;;30.80;99.90;;;;;;5072406;28;20632;-72
2023/09/06 08:50:15;;;;;;;3.47;2.85;;;30.70;99.90;;;;;;5071990;28;20245;-73
2023/09/06 08:52:42;;;;;;;4.35;3.20;;;30.90;99.90;;;;;;5071453;28;20413;-73
2023/09/06 08:55:10;;;;;;;5.28;3.47;;;31.10;99.90;;;;;;5071643;28;20274;-72
2023/09/06 08:57:40;;;;;;;3.53;3.22;;;31.30;99.90;;;;;;5071961;28;20643;-72
2023/09/06 09:00:10;;;;;;;3.40;3.08;;;31.30;99.90;;;;;;5071868;28;20184;-71
2023/09/06 09:02:46;;;;;;;5.07;3.25;;;31.20;99.90;;;;;;5071406;28;20202;-72
2023/09/06 09:05:12;;;;;;;3.72;3.15;;;31.40;99.90;;;;;;5071762;28;20186;-71
2023/09/06 09:07:38;;;;;;;3.22;2.92;;;31.40;99.90;;;;;;5071539;28;20701;-72
2023/09/06 09:10:04;;;;;;;3.60;3.13;;;31.30;99.90;;;;;;5071561;28;20171;-71
2023/09/06 09:12:30;;;;;;;3.83;3.10;;;31.30;99.90;;;;;;5071191;28;20166;-71
2023/09/06 09:14:57;;;;;;;3.95;3.55;;;31.00;99.90;;;;;;5071997;28;20190;-72
2023/09/06 09:17:27;;;;;;;5.93;3.20;;;30.90;99.90;;;;;;5071506;28;20178;-72
2023/09/06 09:19:58;;;;;;;4.28;3.13;;;31.20;99.90;;;;;;5071517;28;20542;-71
2023/09/06 09:22:25;;;;;;;4.22;3.50;;;31.40;99.90;;;;;;5070823;28;20170;-71
2023/09/06 09:25:02;;;;;;;7.18;3.47;;;31.70;99.90;;;;;;5071521;28;20225;-71
2023/09/06 09:27:28;;;;;;;4.03;3.72;;;32.00;99.90;;;;;;5070675;28;20217;-72
2023/09/06 09:29:55;;;;;;;3.53;3.22;;;32.10;99.90;;;;;;5071689;28;20173;-73
2023/09/06 09:32:21;;;;;;;4.25;3.28;;;32.30;99.90;;;;;;5071252;28;20174;-72
2023/09/06 09:34:47;;;;;;;4.35;3.95;;;32.60;99.90;;;;;;5071627;28;20731;-73
2023/09/06 09:37:13;;;;;;;4.78;3.67;;;32.90;99.90;;;;;;5071432;28;20300;-73
2023/09/06 09:39:39;;;;;;;3.75;3.35;;;33.20;99.90;;;;;;5072138;28;20166;-73
2023/09/06 09:42:08;;;;;;;5.50;3.47;;;33.40;99.90;;;;;;5075251;28;20185;-73
2023/09/06 09:44:34;;;;;;;5.07;2.95;;;33.40;99.90;;;;;;5075248;28;20189;-73
2023/09/06 09:47:10;;;;;;;6.35;3.50;;;33.50;99.90;;;;;;5075385;28;20591;-73
2023/09/06 09:49:37;;;;;;;4.93;3.55;;;33.70;99.90;;;;;;5075735;28;20165;-73
2023/09/06 09:52:04;;;;;;;4.30;4.00;;;33.70;99.90;;;;;;5075121;28;20170;-72
2023/09/06 09:54:33;;;;;;;3.30;3.00;;;33.40;99.90;;;;;;5075752;28;20192;-72
2023/09/06 09:57:08;;;;;;;4.40;3.00;;;33.40;99.90;;;;;;5076525;28;20174;-72
2023/09/06 09:59:36;;;;;;;4.60;3.28;;;33.20;99.90;;;;;;5076396;28;20173;-72
2023/09/06 10:02:04;;;;;;;3.75;3.42;;;33.00;99.90;;;;;;5076049;28;20247;-72
2023/09/06 10:04:31;;;;;;;5.88;3.20;;;32.60;99.90;;;;;;5075648;28;20207;-73
2023/09/06 10:06:59;;;;;;;6.15;4.32;;;32.40;99.90;;;;;;5075548;28;20281;-71
2023/09/06 10:09:26;;;;;;;4.20;3.80;;;32.10;99.90;;;;;;5074993;28;20170;-72
2023/09/06 10:11:52;;;;;;;4.45;4.03;;;31.80;99.90;;;;;;5074986;28;20166;-72
2023/09/06 10:14:25;;;;;;;3.80;3.50;;;31.50;99.90;;;;;;5075215;28;20190;-72
2023/09/06 10:16:52;;;;;;;4.28;3.88;;;31.40;99.90;;;;;;5075006;28;20208;-73
2023/09/06 10:19:19;;;;;;;3.55;3.25;;;31.50;99.90;;;;;;5074799;28;20171;-72
2023/09/06 10:21:46;;;;;;;3.85;3.55;;;31.70;99.90;;;;;;5073814;28;20173;-72
2023/09/06 10:24:21;;;;;;;4.07;3.70;;;31.80;99.90;;;;;;5074963;28;20647;-71
2023/09/06 10:26:48;;;;;;;5.22;4.00;;;31.70;99.90;;;;;;5074058;28;20259;-73
2023/09/06 10:29:19;;;;;;;4.15;3.55;;;31.40;99.90;;;;;;5072673;28;20170;-72
2023/09/06 10:31:51;;;;;;;4.38;3.17;;;31.40;99.90;;;;;;5074170;28;20507;-71
2023/09/06 10:34:17;;;;;;;3.38;3.08;;;31.40;99.90;;;;;;5074456;28;20197;-72
2023/09/06 10:36:54;;;;;;;6.90;3.50;;;31.30;99.90;;;;;;5074421;28;20539;-72
2023/09/06 10:39:21;;;;;;;4.13;3.35;;;31.40;99.90;;;;;;5074164;28;20162;-72
2023/09/06 10:42:06;;;;;;;3.72;3.40;;;31.80;99.90;;;;;;5073794;28;20244;-71
2023/09/06 10:44:54;;;;;;;4.90;3.20;;;32.00;99.90;;;;;;5074125;28;20217;-71
2023/09/06 10:47:28;;;;;;;4.13;3.55;;;31.80;99.90;;;;;;5073888;28;20198;-70
2023/09/06 10:50:28;;;;;;;4.38;3.47;;;31.70;99.90;;;;;;5074415;28;20174;-71
2023/09/06 10:52:58;;;;;;;3.92;3.53;;;31.60;99.90;;;;;;5029831;28;20186;-72
2023/09/06 10:55:26;;;;;;;4.47;3.22;;;31.60;99.90;;;;;;5073892;28;20198;-73
2023/09/06 10:58:02;;;;;;;3.63;3.33;;;31.50;99.90;;;;;;5074797;28;20170;-72
2023/09/06 11:00:34;;;;;;;4.10;3.70;;;31.40;99.90;;;;;;5073986;28;20535;-72
2023/09/06 11:03:21;;;;;;;6.05;3.58;;;31.30;99.90;;;;;;5073673;28;20162;-72
2023/09/06 11:05:52;;;;;;;4.82;4.10;;;31.20;99.90;;;;;;5073616;28;20285;-72
2023/09/06 11:08:26;;;;;;;3.60;3.30;;;31.20;99.90;;;;;;5073912;28;20170;-71
2023/09/06 11:10:54;;;;;;;5.45;3.58;;;31.10;99.90;;;;;;5073810;28;20169;-73
2023/09/06 11:13:20;;;;;;;3.75;3.45;;;31.00;99.90;;;;;;5073422;28;20170;-72
2023/09/06 11:15:50;;;;;;;3.80;3.33;;;31.00;99.90;;;;;;5073558;28;20360;-72
2023/09/06 11:18:16;;;;;;;5.25;3.47;;;31.00;99.90;;;;;;5073785;28;20189;-72
2023/09/06 11:20:48;;;;;;;3.58;3.28;;;30.90;99.90;;;;;;5073039;28;20170;-72
2023/09/06 11:23:13;;;;;;;4.32;3.92;;;30.90;99.90;;;;;;5073615;28;20178;-72
2023/09/06 11:25:39;;;;;;;4.50;4.03;;;30.90;99.90;;;;;;5073435;28;20186;-72
2023/09/06 11:28:17;;;;;;;5.30;4.22;;;30.80;99.90;;;;;;5073455;28;20167;-72
2023/09/06 11:30:45;;;;;;;3.80;3.50;;;30.70;99.90;;;;;;5073455;28;20189;-70
2023/09/06 11:33:11;;;;;;;3.90;3.60;;;30.70;99.90;;;;;;5073168;28;20173;-70
2023/09/06 11:35:41;;;;;;;4.40;4.00;;;30.80;99.90;;;;;;5073337;28;20699;-72
2023/09/06 11:38:12;;;;;;;4.30;3.55;;;30.90;99.90;;;;;;5073447;28;20672;-72
2023/09/06 11:40:38;;;;;;;3.53;3.25;;;31.00;99.90;;;;;;5073094;28;20189;-72
2023/09/06 11:43:08;;;;;;;4.70;4.05;;;31.10;99.90;;;;;;5073197;28;20216;-73
2023/09/06 11:45:35;;;;;;;5.22;3.90;;;31.30;99.90;;;;;;5072892;28;20186;-72
2023/09/06 11:48:08;;;;;;;3.30;3.00;;;31.50;99.90;;;;;;5073579;28;20166;-71
2023/09/06 11:50:42;;;;;;;3.85;3.55;;;31.60;99.90;;;;;;5073341;28;20170;-71
2023/09/06 11:53:11;;;;;;;4.82;4.43;;;31.70;99.70;;;;;;5072885;28;20170;-71
2023/09/06 11:55:43;;;;;;;3.88;3.53;;;31.70;99.90;;;;;;5072637;28;20190;-71
2023/09/06 11:58:18;;;;;;;3.92;3.22;;;31.90;99.90;;;;;;5072905;28;20166;-71
2023/09/06 12:00:50;;;;;;;4.70;3.67;;;31.70;99.30;;;;;;5072872;28;20253;-70
2023/09/06 12:03:16;;;;;;;5.07;3.47;;;31.60;99.90;;;;;;5071800;28;20875;-69
2023/09/06 12:05:48;;;;;;;4.40;4.00;;;31.50;99.50;;;;;;5072633;28;20190;-70
2023/09/06 12:08:22;;;;;;;3.90;3.60;;;31.30;99.90;;;;;;5073006;28;20173;-71
2023/09/06 12:10:52;;;;;;;4.45;4.05;;;31.30;99.90;;;;;;5072934;28;20194;-70
2023/09/06 12:13:26;;;;;;;5.45;4.75;;;31.40;99.90;;;;;;5072340;28;20216;-72
2023/09/06 12:15:52;;;;;;;6.03;4.15;;;31.50;99.90;;;;;;5072536;28;20190;-72
2023/09/06 12:18:18;;;;;;;4.15;3.50;;;31.60;99.90;;;;;;5072549;28;20515;-73
2023/09/06 12:20:44;;;;;;;4.10;3.72;;;31.80;99.90;;;;;;5071926;28;20174;-69
2023/09/06 12:23:10;;;;;;;4.60;3.70;;;31.90;99.60;;;;;;5072133;28;20181;-70
2023/09/06 12:25:35;;;;;;;4.32;3.92;;;32.10;99.90;;;;;;5072005;28;20559;-71
2023/09/06 12:28:01;;;;;;;4.10;3.70;;;32.20;99.90;;;;;;5071686;28;20311;-71
2023/09/06 12:30:27;;;;;;;4.82;3.70;;;32.20;99.90;;;;;;5072287;28;20223;-73
2023/09/06 12:32:53;;;;;;;4.13;3.65;;;32.20;99.90;;;;;;5072912;28;20174;-73
2023/09/06 12:35:18;;;;;;;3.60;3.30;;;32.30;99.90;;;;;;5073729;28;20186;-69
2023/09/06 12:37:45;;;;;;;6.10;3.55;;;32.40;99.90;;;;;;5073645;28;20586;-72
2023/09/06 12:40:13;;;;;;;4.63;3.58;;;32.50;99.90;;;;;;5073615;28;20174;-71
2023/09/06 12:42:46;;;;;;;4.55;3.47;;;32.60;99.90;;;;;;5072440;28;20213;-71
2023/09/06 12:45:26;;;;;;;3.88;3.58;;;32.80;99.90;;;;;;5072544;28;20210;-72
2023/09/06 12:47:53;;;;;;;4.25;3.85;;;32.90;99.90;;;;;;5070533;28;20202;-72
2023/09/06 12:50:19;;;;;;;3.72;3.42;;;32.90;99.90;;;;;;5071919;28;20231;-70
2023/09/06 12:52:46;;;;;;;3.65;3.35;;;32.90;99.90;;;;;;5070166;28;20170;-71